Home > Products > Valid Products > MTR

000
SAUS45 KLKN 051554
MTRP68
METAR KP68 051553Z AUTO 05003KT 12/M04 A3006 RMK AO1 SLP113
T01221039





000
SAUS45 KLKN 051554
MTRP68
METAR KP68 051553Z AUTO 05003KT 12/M04 A3006 RMK AO1 SLP113
T01221039





000
SAUS45 KLKN 051454
MTRP68
METAR KP68 051453Z AUTO 00000KT 09/M06 A3005 RMK AO1 SLP113
T00891056 52015





000
SAUS45 KLKN 051454
MTRP68
METAR KP68 051453Z AUTO 00000KT 09/M06 A3005 RMK AO1 SLP113
T00891056 52015





000
SAUS45 KLKN 051355
MTRP68
METAR KP68 051353Z AUTO 16003KT 03/M07 A3003 RMK AO1 SLP114
T00331072





000
SAUS45 KLKN 051254
MTRP68
METAR KP68 051253Z AUTO 17003KT 02/M07 A3001 RMK AO1 SLP106
T00171072





000
SAUS45 KLKN 051254
MTRP68
METAR KP68 051253Z AUTO 17003KT 02/M07 A3001 RMK AO1 SLP106
T00171072





000
SAUS45 KLKN 051154
MTRP68
METAR KP68 051153Z AUTO 00000KT 04/M06 A2999 RMK AO1 SLP094
T00391061 10161 20033 53011





000
SAUS45 KLKN 051154
MTRP68
METAR KP68 051153Z AUTO 00000KT 04/M06 A2999 RMK AO1 SLP094
T00391061 10161 20033 53011





000
SAUS45 KLKN 051054
MTRP68
METAR KP68 051053Z AUTO 17004KT 04/M07 A2998 RMK AO1 SLP086
T00441067





000
SAUS45 KLKN 051054
MTRP68
METAR KP68 051053Z AUTO 17004KT 04/M07 A2998 RMK AO1 SLP086
T00441067





000
SAUS45 KLKN 050955
MTRP68
METAR KP68 050953Z AUTO 18004KT 06/M07 A2997 RMK AO1 SLP080
T00561067





000
SAUS45 KLKN 050855
MTRP68
METAR KP68 050853Z AUTO 21003KT 08/M06 A2995 RMK AO1 SLP073
T00781056 51011





000
SAUS45 KLKN 050855
MTRP68
METAR KP68 050853Z AUTO 21003KT 08/M06 A2995 RMK AO1 SLP073
T00781056 51011





000
SAUS45 KLKN 050754
MTRP68
METAR KP68 050753Z AUTO 00000KT 10/M05 A2995 RMK AO1 SLP069
T01001050 402720044





000
SAUS45 KLKN 050754
MTRP68
METAR KP68 050753Z AUTO 00000KT 10/M05 A2995 RMK AO1 SLP069
T01001050 402720044





000
SAUS45 KLKN 050654
MTRP68
METAR KP68 050653Z AUTO 03006KT 13/M06 A2994 RMK AO1 SLP063
T01281056





000
SAUS45 KLKN 050555
MTRP68
METAR KP68 050553Z AUTO 34008KT 16/M12 A2992 RMK AO1 SLP049
T01611122 10261 20150 51028





000
SAUS45 KLKN 050555
MTRP68
METAR KP68 050553Z AUTO 34008KT 16/M12 A2992 RMK AO1 SLP049
T01611122 10261 20150 51028





000
SAUS45 KLKN 050454
MTRP68
METAR KP68 050453Z AUTO 15006KT 16/M09 A2991 RMK AO1 SLP052
T01611094





000
SAUS45 KLKN 050354
MTRP68
METAR KP68 050353Z AUTO 29013KT 19/M11 A2987 RMK AO1 WSHFT 0313
SLP041 T01891106





000
SAUS45 KLKN 050332
MTRP68
SPECI KP68 050330Z AUTO 26009G19KT 19/M10 A2986 RMK AO1 WSHFT 0313
PRESRR T01941100





000
SAUS45 KLKN 050327
MTRP68
SPECI KP68 050325Z AUTO 30013G25KT 19/M10 A2985 RMK AO1 WSHFT 0308
PRESRR T01941100





000
SAUS45 KLKN 050255
MTRP68
METAR KP68 050253Z AUTO 18010KT 21/M09 A2982 RMK AO1 SLP023
T02111094 53009





000
SAUS45 KLKN 050155
MTRP68
METAR KP68 050153Z AUTO 24013KT 23/M11 A2980 RMK AO1 SLP028
T02281111





000
SAUS45 KLKN 050055
MTRP68
METAR KP68 050053Z AUTO 21016G25KT 24/M12 A2979 RMK AO1 PK WND
21030/0034 SLP015 T02441117





000
SAUS45 KLKN 042355
MTRP68
METAR KP68 042353Z AUTO 21013G30KT 26/M12 A2979 RMK AO1 PK WND
20030/2346 SLP017 T02561122 10272 20228 55009





000
SAUS45 KLKN 042355
MTRP68
METAR KP68 042353Z AUTO 21013G30KT 26/M12 A2979 RMK AO1 PK WND
20030/2346 SLP017 T02561122 10272 20228 55009





000
SAUS45 KLKN 042254
MTRP68
METAR KP68 042253Z AUTO 24017G28KT 27/M12 A2978 RMK AO1 PK WND
19032/2222 SLP014 T02671122





000
SAUS45 KLKN 042154
MTRP68
METAR KP68 042153Z AUTO 19015G26KT 26/M11 A2980 RMK AO1 PK WND
18031/2130 SLP015 T02611111





000
SAUS45 KLKN 042055
MTRP68
METAR KP68 042053Z AUTO 20021G29KT 26/M09 A2982 RMK AO1 PK WND
20032/2040 SLP023 T02561094 58019





000
SAUS45 KLKN 041955
MTRP68
METAR KP68 041953Z AUTO 22011G25KT 24/M08 A2984 RMK AO1 SLP028
T02441078





000
SAUS45 KLKN 041855
MTRP68
METAR KP68 041853Z AUTO 21015G22KT 24/M07 A2987 RMK AO1 SLP038
T02391067





000
SAUS45 KLKN 041855
MTRP68
METAR KP68 041853Z AUTO 21015G22KT 24/M07 A2987 RMK AO1 SLP038
T02391067





000
SAUS45 KLKN 041754
MTRP68
METAR KP68 041753Z AUTO 17011G21KT 23/M06 A2989 RMK AO1 SLP037
T02281056 10233 20050 58010





000
SAUS45 KLKN 041754
MTRP68
METAR KP68 041753Z AUTO 17011G21KT 23/M06 A2989 RMK AO1 SLP037
T02281056 10233 20050 58010





000
SAUS45 KLKN 041655
MTRP68
METAR KP68 041653Z AUTO 21/M03 A2991 RMK AO1 SLP057 T02061028





000
SAUS45 KLKN 041555
MTRP68
METAR KP68 041553Z AUTO 00000KT 17/M01 A2992 RMK AO1 SLP060
T01671006





000
SAUS45 KLKN 041455
MTRP68
METAR KP68 041453Z AUTO 00000KT 13/M01 A2992 RMK AO1 SLP065
T01281011 51007





000
SAUS45 KLKN 041354
MTRP68
METAR KP68 041353Z AUTO 18004KT 06/M05 A2992 RMK AO1 SLP070
T00561050





000
SAUS45 KLKN 041354
MTRP68
METAR KP68 041353Z AUTO 18004KT 06/M05 A2992 RMK AO1 SLP070
T00561050





000
SAUS45 KLKN 041254
MTRP68
METAR KP68 041253Z AUTO 00000KT 08/M04 A2991 RMK AO1 SLP055
T00831039





000
SAUS45 KLKN 041254
MTRP68
METAR KP68 041253Z AUTO 00000KT 08/M04 A2991 RMK AO1 SLP055
T00831039





000
SAUS45 KLKN 041154
MTRP68
METAR KP68 041153Z AUTO 32004KT 07/M06 A2990 RMK AO1 SLP052
T00671061 10172 20044 55002





000
SAUS45 KLKN 041054
MTRP68
METAR KP68 041053Z AUTO 20004KT 07/M06 A2989 RMK AO1 SLP049
T00671056





000
SAUS45 KLKN 040955
MTRP68
METAR KP68 040953Z AUTO 22005KT 09/M05 A2990 RMK AO1 SLP043
T00941050





000
SAUS45 KLKN 040855
MTRP68
METAR KP68 040853Z AUTO 16003KT 09/M05 A2990 RMK AO1 SLP050
T00891050 50003





000
SAUS45 KLKN 040655
MTRP68
METAR KP68 040653Z AUTO VRB05KT 12/M06 A2991 RMK AO1 SLP047
T01221056





000
SAUS45 KLKN 040655
MTRP68
METAR KP68 040653Z AUTO VRB05KT 12/M06 A2991 RMK AO1 SLP047
T01221056





000
SAUS45 KLKN 040555
MTRP68
METAR KP68 040553Z AUTO 22005KT 17/M06 A2989 RMK AO1 SLP034
T01721061 10283 20111 51009





000
SAUS45 KLKN 040555
MTRP68
METAR KP68 040553Z AUTO 22005KT 17/M06 A2989 RMK AO1 SLP034
T01721061 10283 20111 51009





000
SAUS45 KLKN 040455
MTRP68
METAR KP68 040453Z AUTO 18004KT 12/M06 A2989 RMK AO1 SLP046
T01221056





000
SAUS45 KLKN 040354
MTRP68
METAR KP68 040353Z AUTO 20003KT 16/M05 A2988 RMK AO1 SLP038
T01611050





000
SAUS45 KLKN 040254
MTRP68
METAR KP68 040253Z AUTO 10004KT 19/M04 A2986 RMK AO1 SLP030
T01941044 53008





000
SAUS45 KLKN 040254
MTRP68
METAR KP68 040253Z AUTO 10004KT 19/M04 A2986 RMK AO1 SLP030
T01941044 53008





000
SAUS45 KLKN 040155
MTRP68
METAR KP68 040153Z AUTO 26008KT 23/M06 A2984 RMK AO1 SLP025
T02281061





000
SAUS45 KLKN 040155
MTRP68
METAR KP68 040153Z AUTO 26008KT 23/M06 A2984 RMK AO1 SLP025
T02281061





000
SAUS45 KLKN 040054
MTRP68
METAR KP68 040053Z AUTO 26010KT 26/M07 A2984 RMK AO1 PK WND
22029/0009 SLP017 T02561072





000
SAUS45 KLKN 040054
MTRP68
METAR KP68 040053Z AUTO 26010KT 26/M07 A2984 RMK AO1 PK WND
22029/0009 SLP017 T02561072





000
SAUS45 KLKN 032355
MTRP68
METAR KP68 032353Z AUTO 20015G22KT 28/M11 A2983 RMK AO1 PK WND
21026/2318 SLP014 T02781111 10289 20256 56016





000
SAUS45 KLKN 032355
MTRP68
METAR KP68 032353Z AUTO 20015G22KT 28/M11 A2983 RMK AO1 PK WND
21026/2318 SLP014 T02781111 10289 20256 56016





000
SAUS45 KLKN 032254
MTRP68
METAR KP68 032253Z AUTO 19016G21KT 28/M11 A2985 RMK AO1 PK WND
20028/2238 SLP016 T02781106





000
SAUS45 KLKN 032154
MTRP68
METAR KP68 032153Z AUTO 22016G33KT 29/M09 A2987 RMK AO1 PK WND
20033/2151 SLP022 T02891094





000
SAUS45 KLKN 032055
MTRP68
METAR KP68 032053Z AUTO 19014G28KT 28/M10 A2989 RMK AO1 PK WND
23028/2048 SLP024 T02781100 56019





000
SAUS45 KLKN 032055
MTRP68
METAR KP68 032053Z AUTO 19014G28KT 28/M10 A2989 RMK AO1 PK WND
23028/2048 SLP024 T02781100 56019





000
SAUS45 KLKN 031955
MTRP68
METAR KP68 031953Z AUTO 20016G27KT 28/M11 A2990 RMK AO1 PK WND
21028/1927 SLP032 T02781106





000
SAUS45 KLKN 031955
MTRP68
METAR KP68 031953Z AUTO 20016G27KT 28/M11 A2990 RMK AO1 PK WND
21028/1927 SLP032 T02781106





000
SAUS45 KLKN 031855
MTRP68
METAR KP68 031853Z AUTO 21012KT 27/M09 A2992 RMK AO1 SLP040
T02671089





000
SAUS45 KLKN 031754
MTRP68
METAR KP68 031753Z AUTO 23012G19KT 26/M08 A2995 RMK AO1 PK WND
19028/1740 SLP050 T02611083 10261 20128 58009





000
SAUS45 KLKN 031654
MTRP68
METAR KP68 031653Z AUTO 19017G24KT 24/M06 A2997 RMK AO1 SLP054
T02441056





000
SAUS45 KLKN 031555
MTRP68
METAR KP68 031553Z AUTO 23013G19KT 23/M06 A2998 RMK AO1 SLP060
T02281056





000
SAUS45 KLKN 031455
MTRP68
METAR KP68 031453Z AUTO 14006KT 19/M03 A2999 RMK AO1 SLP066
T01941028 53001





000
SAUS45 KLKN 031355
MTRP68
METAR KP68 031353Z AUTO 14006KT 14/M03 A2999 RMK AO1 SLP070
T01441033





000
SAUS45 KLKN 031355
MTRP68
METAR KP68 031353Z AUTO 14006KT 14/M03 A2999 RMK AO1 SLP070
T01441033





000
SAUS45 KLKN 031254
MTRP68
METAR KP68 031253Z AUTO 14011KT 15/M03 A2998 RMK AO1 SLP063
T01501033





000
SAUS45 KLKN 031254
MTRP68
METAR KP68 031253Z AUTO 14011KT 15/M03 A2998 RMK AO1 SLP063
T01501033





000
SAUS45 KLKN 031154
MTRP68
METAR KP68 031153Z AUTO 14010KT 14/M04 A2998 RMK AO1 SLP064
T01441039 10222 20128 58001





000
SAUS45 KLKN 031154
MTRP68
METAR KP68 031153Z AUTO 14010KT 14/M04 A2998 RMK AO1 SLP064
T01441039 10222 20128 58001





000
SAUS45 KLKN 031054
MTRP68
METAR KP68 031053Z AUTO 23004KT 17/M04 A2999 RMK AO1 SLP061
T01671039





000
SAUS45 KLKN 030954
MTRP68
METAR KP68 030953Z AUTO 17003KT 16/M06 A2999 RMK AO1 SLP062
T01611056





000
SAUS45 KLKN 030855
MTRP68
METAR KP68 030853Z AUTO 21/M06 A2999 RMK AO1 SLP055 T02061061 50001





000
SAUS45 KLKN 030755
MTRP68
METAR KP68 030753Z AUTO 16004KT 17/M06 A2999 RMK AO1 SLP064
T01721056 403110094





000
SAUS45 KLKN 030755
MTRP68
METAR KP68 030753Z AUTO 16004KT 17/M06 A2999 RMK AO1 SLP064
T01721056 403110094





000
SAUS45 KLKN 030655
MTRP68
METAR KP68 030653Z AUTO 00000KT 18/M08 A2999 RMK AO1 SLP062
T01831083





000
SAUS45 KLKN 030655
MTRP68
METAR KP68 030653Z AUTO 00000KT 18/M08 A2999 RMK AO1 SLP062
T01831083





000
SAUS45 KLKN 030555
MTRP68
METAR KP68 030553Z AUTO VRB03KT 20/M11 A2998 RMK AO1 SLP058
T02001106 10289 20200 51009





000
SAUS45 KLKN 030555
MTRP68
METAR KP68 030553Z AUTO VRB03KT 20/M11 A2998 RMK AO1 SLP058
T02001106 10289 20200 51009





000
SAUS45 KLKN 030454
MTRP68
METAR KP68 030453Z AUTO 18009KT 22/M11 A2997 RMK AO1 SLP054
T02171106





000
SAUS45 KLKN 030354
MTRP68
METAR KP68 030353Z AUTO 19013KT 22/M11 A2997 RMK AO1 SLP057
T02221111





000
SAUS45 KLKN 030255
MTRP68
METAR KP68 030253Z AUTO 18010KT 23/M11 A2995 RMK AO1 SLP052
T02331111 53002





000
SAUS45 KLKN 030255
MTRP68
METAR KP68 030253Z AUTO 18010KT 23/M11 A2995 RMK AO1 SLP052
T02331111 53002





000
SAUS45 KLKN 030155
MTRP68
METAR KP68 030153Z AUTO 20013KT 26/M10 A2993 RMK AO1 SLP057
T02611100





000
SAUS45 KLKN 030054
MTRP68
METAR KP68 030053Z AUTO 20015G24KT 29/M10 A2994 RMK AO1 SLP048
T02891100





000
SAUS45 KLKN 022354
MTRP68
METAR KP68 022353Z AUTO 21014G22KT 29/M07 A2994 RMK AO1 SLP052
T02891072 10311 20267 56017





000
SAUS45 KLKN 022354
MTRP68
METAR KP68 022353Z AUTO 21014G22KT 29/M07 A2994 RMK AO1 SLP052
T02891072 10311 20267 56017





000
SAUS45 KLKN 022255
MTRP68
METAR KP68 022253Z AUTO 20013G21KT 31/M08 A2995 RMK AO1 SLP052
T03061078





000
SAUS45 KLKN 022154
MTRP68
METAR KP68 022153Z AUTO 21019G28KT 160V240 31/M07 A2997 RMK AO1 PK
WND 21028/2152 SLP049 T03061067





000
SAUS45 KLKN 022154
MTRP68
METAR KP68 022153Z AUTO 21019G28KT 160V240 31/M07 A2997 RMK AO1 PK
WND 21028/2152 SLP049 T03061067





000
SAUS45 KLKN 022054
MTRP68
METAR KP68 022053Z AUTO 20018G25KT 31/M06 A3000 RMK AO1 PK WND
18027/2037 SLP065 T03061056 56018





000
SAUS45 KLKN 021954
MTRP68
METAR KP68 021953Z AUTO 21015G26KT 29/M05 A3002 RMK AO1 PK WND
20026/1950 SLP074 T02941050





000
SAUS45 KLKN 021854
MTRP68
METAR KP68 021853Z AUTO 17017G23KT 28/M02 A3005 RMK AO1 SLP077
T02831017





000
SAUS45 KLKN 021754
MTRP68
METAR KP68 021753Z AUTO 17016G25KT 27/M02 A3007 RMK AO1 SLP085
T02721017 10272 20094 58009





000
SAUS45 KLKN 021655
MTRP68
METAR KP68 021653Z AUTO 18010G21KT 26/M02 A3008 RMK AO1 SLP093
T02561022





    US Dept of Commerce
    National Oceanic and Atmospheric Administration
    National Weather Service
    1325 East West Highway
    Silver Spring, MD 20910
    Page Author: NWS Internet Services Team
Disclaimer
Information Quality
Credits
Glossary
Privacy Policy
Freedom of Information Act (FOIA)
About Us
Career Opportunities